Esperance, Australia
Current Conditions -  °F | °C
As of 6:00 PM on Sunday 25 Jan 2015 (Local Time) from YESP Reporting Station
Clear Clear  
Wind Chill: 66°   Ceiling: Unl
Heat Index: 66°   Visibility: 6mi
Dew Point: 50°   Wind: 20mph
Humidity: 56%   Direction: 120°ESE
Pressure: 30.06"   Gusts: NA
Location:  33.87°S, 121.89°E
Report Text: YESP 251000Z AUTO 12017KT 9999 // NCD 19/10 Q1018
Loading
Personal Weather Stations






























Interactive Weather Map New forecast layout! Learn more

10-Day Weather Forecast

Advertisements
Track Severe Weather on mobile